^^
Datos históricos de la estación: Murcia-Puente Tocinos
Diario Informe para Octubre 28, 2021 Unidades:  Ingés    Métrico   Ambas
Diario Semanal Mensual Anual
  Máxima: Mínima: Promedio:
Temperatura: 73.2 °F 56.7 °F 63.7 °F
Punto de rocio: 57.6 °F 52.5 °F 55 °F
Humedad: 89% 51.2% 75%
Velocidad viento: 9.2mph 0mph 3.5mph
Racha viento: 16.1mph - -
Viento- - Sur
Presión: 30.1 in 30 in -
Precipitación: 0 in    
 
 
Tabla de datos para Octubre 28, 2021
Hora Temperatura Punto de rocio Presión Viento Velocidad viento Racha viento Humedad Intensidad lluvia(por hora) Nubes
00:04 61.7 °F 55.6 °F 30.1 in SSE 1.8 mph 2.4 mph 80% 0 in
00:09 61.7 °F 55.6 °F 30.1 in SSE 1.7 mph 2.3 mph 80% 0 in
00:14 61.7 °F 55.6 °F 30.1 in SSE 1.4 mph 2.3 mph 80% 0 in
00:19 61.7 °F 55.4 °F 30.1 in SSE 0.9 mph 2.9 mph 80% 0 in
00:24 61.5 °F 55.2 °F 30.1 in Calm   2.3 mph 80% 0 in
00:29 61.5 °F 55.6 °F 30.1 in SSE 0.6 mph 3.5 mph 80.7% 0 in
00:34 61.3 °F 55.6 °F 30.1 in SSE 1.4 mph 3.6 mph 81% 0 in
00:39 61.3 °F 55.6 °F 30.1 in SSE 1.6 mph 3.5 mph 81% 0 in
00:44 61.3 °F 55.6 °F 30.1 in SSE 2 mph 2.3 mph 81% 0 in
00:49 61.3 °F 55.6 °F 30.1 in SSE 1.8 mph 2.3 mph 81.2% 0 in
00:54 61.3 °F 55.8 °F 30.1 in SSE 1.4 mph 2.3 mph 82% 0 in
00:59 61.3 °F 55.8 °F 30.1 in SSE 0.8 mph 3.5 mph 82% 0 in
01:04 61.2 °F 55.6 °F 30.1 in Calm   4.6 mph 82% 0 in
01:09 61 °F 55.4 °F 30.1 in SE 0.9 mph 4.6 mph 82% 0 in
01:14 61 °F 55.6 °F 30.1 in ESE 2.4 mph 2.9 mph 82.4% 0 in
01:19 61 °F 55.8 °F 30.1 in ESE 2 mph 4.6 mph 83% 0 in
01:24 61 °F 55.8 °F 30.1 in SSE 1.4 mph 4.7 mph 83% 0 in
01:29 60.8 °F 55.6 °F 30.1 in Sur 1.9 mph 4.7 mph 83% 0 in
01:34 61 °F 55.6 °F 30.1 in SSO 2.9 mph 5.8 mph 82.8% 0 in
01:39 61 °F 55.4 °F 30.1 in SSO 3.3 mph 5.8 mph 82% 0 in
01:44 61 °F 55.2 °F 30.1 in SSO 4 mph 5.9 mph 81.5% 0 in
01:49 61.2 °F 55.2 °F 30.1 in Sur 4 mph 5.8 mph 81% 0 in
01:54 61.2 °F 55.2 °F 30.1 in Sur 4 mph 5.2 mph 81% 0 in
01:59 61 °F 55 °F 30.1 in Sur 3.7 mph 5.9 mph 81% 0 in
02:04 61 °F 55 °F 30.1 in Sur 3.1 mph 6.4 mph 81% 0 in
02:09 60.6 °F 54.9 °F 30.1 in SSO 3.5 mph 6.9 mph 81% 0 in
02:14 60.4 °F 54.9 °F 30.1 in SSO 4.3 mph 6.2 mph 82% 0 in
02:19 60.3 °F 54.7 °F 30.1 in SSE 4.3 mph 6.9 mph 82% 0 in
02:24 60.1 °F 54.7 °F 30.1 in Sur 4.3 mph 6.9 mph 82% 0 in
02:29 59.7 °F 54.5 °F 30.1 in SSO 4.5 mph 7.6 mph 82.5% 0 in
02:34 59.7 °F 54.5 °F 30.1 in SSO 4.7 mph 9.2 mph 83% 0 in
02:39 59.5 °F 54.5 °F 30.1 in SSO 4.9 mph 6.9 mph 83% 0 in
02:44 59.5 °F 54.3 °F 30.1 in Sur 5.2 mph 6.2 mph 83% 0 in
02:49 59.5 °F 54.3 °F 30.1 in SSO 4.8 mph 5.9 mph 83% 0 in
02:54 59.4 °F 54.3 °F 30.1 in SO 4.3 mph 5.9 mph 83.4% 0 in
02:59 59.4 °F 54.5 °F 30.1 in SSO 4 mph 5.8 mph 84% 0 in
03:04 59.4 °F 54.5 °F 30.1 in SO 3.6 mph 4.6 mph 84% 0 in
03:09 59.4 °F 54.5 °F 30.1 in SO 3.1 mph 4.6 mph 84% 0 in
03:14 59.4 °F 54.5 °F 30.1 in SO 2.4 mph 4.6 mph 84% 0 in
03:19 59.4 °F 54.5 °F 30.1 in SO 2.2 mph 3.5 mph 84% 0 in
03:24 59.4 °F 54.5 °F 30.1 in SO 1.8 mph 3.6 mph 84% 0 in
03:29 59.4 °F 54.5 °F 30.1 in SO 2.1 mph 4.7 mph 84% 0 in
03:34 59.4 °F 54.5 °F 30.1 in OSO 2.4 mph 4.6 mph 84% 0 in
03:39 59.4 °F 54.5 °F 30.1 in OSO 2.6 mph 4.6 mph 84% 0 in
03:44 59.2 °F 54.3 °F 30.1 in OSO 2.9 mph 3.5 mph 84% 0 in
03:49 59.2 °F 54.3 °F 30.1 in OSO 2.5 mph 3.6 mph 84% 0 in
03:54 59.2 °F 54.3 °F 30.1 in OSO 2 mph 3.5 mph 84% 0 in
03:59 59.2 °F 54.3 °F 30.1 in OSO 2 mph 3.5 mph 84% 0 in
04:04 59.2 °F 54.3 °F 30.1 in SSO 2 mph 4 mph 84% 0 in
04:09 59.2 °F 54.3 °F 30.1 in SSE 2 mph 5.2 mph 84% 0 in
04:14 58.8 °F 54.1 °F 30.1 in SSE 2 mph 4.6 mph 84.7% 0 in
04:19 58.6 °F 54.1 °F 30.1 in Sur 2.4 mph 4.6 mph 85% 0 in
04:24 58.5 °F 54.3 °F 30.1 in Sur 2.9 mph 4.6 mph 85.8% 0 in
04:29 58.5 °F 54.1 °F 30.1 in SSE 3 mph 5.8 mph 86% 0 in
04:34 58.3 °F 54.1 °F 30.1 in Sur 3.1 mph 4.6 mph 86.1% 0 in
04:39 58.1 °F 54.3 °F 30.1 in Sur 3.1 mph 4.6 mph 87% 0 in
04:44 58.1 °F 54.1 °F 30.1 in SE 3.1 mph 4.7 mph 87% 0 in
04:49 57.9 °F 54.1 °F 30.1 in SSE 3 mph 4.6 mph 87% 0 in
04:54 57.9 °F 54.1 °F 30.1 in Sur 2.9 mph 3.6 mph 87% 0 in
04:59 57.9 °F 54.1 °F 30.1 in SSO 2.5 mph 3.6 mph 87% 0 in
05:04 57.9 °F 54.1 °F 30.1 in SSE 2 mph 4.6 mph 87% 0 in
05:09 57.7 °F 54 °F 30.1 in SSE 2.4 mph 5.8 mph 87% 0 in
05:14 57.6 °F 53.8 °F 30.1 in SSE 3.1 mph 7.4 mph 87% 0 in
05:19 57.4 °F 53.4 °F 30.1 in Sur 3.5 mph 5.9 mph 87.1% 0 in
05:24 57 °F 53.6 °F 30.1 in SSE 4.3 mph 5.9 mph 88% 0 in
05:29 56.8 °F 53.4 °F 30.1 in SSE 4.2 mph 6.9 mph 88% 0 in
05:34 56.8 °F 53.2 °F 30.1 in SSE 4 mph 6.9 mph 88% 0 in
05:39 56.8 °F 53.2 °F 30.1 in Sur 4 mph 6.4 mph 88% 0 in
05:44 56.8 °F 53.6 °F 30.1 in SSO 4 mph 7.4 mph 89% 0 in
05:49 56.8 °F 53.6 °F 30.1 in SO 4 mph 6.4 mph 89% 0 in
05:54 56.8 °F 53.4 °F 30.1 in SSO 4 mph 6.9 mph 88.5% 0 in
05:59 57 °F 53.4 °F 30.1 in SSO 4 mph 6.2 mph 88% 0 in
06:04 57 °F 53.4 °F 30.1 in SSO 4 mph 5.9 mph 88% 0 in
06:09 57 °F 53.4 °F 30.1 in SO 4 mph 6.9 mph 88% 0 in
06:14 57 °F 53.2 °F 30.1 in SSO 4 mph 5.8 mph 87.1% 0 in
06:19 57 °F 53.2 °F 30.1 in SSO 3.9 mph 6.2 mph 87% 0 in
06:24 57 °F 53.2 °F 30.1 in Sur 3.6 mph 4.7 mph 87% 0 in
06:29 57 °F 53.2 °F 30.1 in Sur 3.4 mph 5.2 mph 87% 0 in
06:34 57 °F 53.2 °F 30.1 in Sur 3.1 mph 5.2 mph 87% 0 in
06:39 57 °F 53.2 °F 30.1 in SSO 3.5 mph 5.9 mph 87% 0 in
06:44 57 °F 53.2 °F 30.1 in SSO 4 mph 5.8 mph 87% 0 in
06:49 57 °F 53.2 °F 30.1 in SO 3.9 mph 5.8 mph 87% 0 in
06:54 57 °F 53.2 °F 30.1 in SO 3.6 mph 5.2 mph 87% 0 in
06:59 57 °F 53.2 °F 30.1 in SO 3.3 mph 4.6 mph 87% 0 in
07:04 57 °F 53.2 °F 30.1 in SO 2.9 mph 5.4 mph 87% 0 in
07:09 57 °F 53.2 °F 30.1 in SO 3 mph 5.8 mph 87% 0 in
07:14 57 °F 53.2 °F 30.1 in SO 3.1 mph 4 mph 87% 0 in
07:19 56.8 °F 53.1 °F 30.1 in SO 2.9 mph 4.6 mph 86.7% 0 in
07:24 56.8 °F 53.1 °F 30.1 in SO 2.4 mph 4.7 mph 87% 0 in
07:29 56.8 °F 53.1 °F 30.1 in SO 2.6 mph 5.9 mph 87% 0 in
07:34 56.8 °F 53.1 °F 30.1 in SO 2.9 mph 5.9 mph 87% 0 in
07:39 56.8 °F 53.1 °F 30.1 in SO 3.4 mph 6.9 mph 87% 0 in
07:44 56.8 °F 53.1 °F 30.1 in SO 4 mph 5.2 mph 87% 0 in
07:49 56.8 °F 53.1 °F 30.1 in OSO 3.7 mph 4.7 mph 87% 0 in
07:54 56.8 °F 53.1 °F 30.1 in SO 3.1 mph 4.7 mph 87% 0 in
07:59 56.8 °F 53.1 °F 30.1 in SSO 3 mph 4.7 mph 87% 0 in
08:04 56.8 °F 52.9 °F 30.1 in SSO 2.9 mph 6.2 mph 86.5% 0 in
08:09 56.8 °F 52.7 °F 30.1 in Sur 3.2 mph 5.8 mph 86% 0 in
08:14 56.8 °F 52.7 °F 30.1 in SSO 3.6 mph 4.7 mph 86% 0 in
08:19 56.8 °F 52.7 °F 30.1 in SSO 3.4 mph 4.7 mph 86% 0 in
08:24 56.8 °F 52.7 °F 30.1 in SSO 3.1 mph 4.6 mph 86% 0 in
08:29 56.8 °F 52.7 °F 30.1 in SO 2.8 mph 4.6 mph 86% 0 in
08:34 56.8 °F 52.7 °F 30.1 in OSO 2.4 mph 4.7 mph 86% 0 in
08:39 56.8 °F 52.7 °F 30.1 in OSO 2.4 mph 5.8 mph 86% 0 in
08:44 56.7 °F 52.5 °F 30.1 in SO 2.4 mph 5.8 mph 86% 0 in
08:49 56.7 °F 52.5 °F 30.1 in OSO 2.4 mph 4.6 mph 86% 0 in
08:54 56.8 °F 52.7 °F 30.1 in OSO 2.4 mph 3.1 mph 86% 0 in
08:59 56.8 °F 52.7 °F 30.1 in OSO 2.2 mph 3.5 mph 86% 0 in
09:04 56.8 °F 52.7 °F 30.1 in OSO 1.8 mph 2.4 mph 86% 0 in
09:09 57 °F 52.9 °F 30.1 in Sur 1.8 mph 4 mph 86% 0 in
09:14 57 °F 52.9 °F 30.1 in SE 1.8 mph 4.6 mph 86% 0 in
09:19 57 °F 52.9 °F 30.1 in SE 2.1 mph 4.6 mph 86% 0 in
09:24 57 °F 52.9 °F 30.1 in SE 2.4 mph 4.6 mph 86% 0 in
09:29 57 °F 52.9 °F 30.1 in ESE 2.2 mph 3.6 mph 86% 0 in
09:34 57 °F 52.9 °F 30.1 in ESE 2 mph 4.6 mph 86% 0 in
09:39 57 °F 52.9 °F 30.1 in SE 2.3 mph 5.2 mph 86% 0 in
09:44 57 °F 52.9 °F 30.1 in SE 2.9 mph 4.6 mph 86% 0 in
09:49 57 °F 53.1 °F 30.1 in SSE 2.9 mph 5.2 mph 86.6% 0 in
09:54 57 °F 52.9 °F 30.1 in SSE 2.9 mph 5.4 mph 86% 0 in
09:59 57.2 °F 53.1 °F 30.1 in SSE 3.2 mph 5.8 mph 85.7% 0 in
10:04 57.6 °F 53.1 °F 30.1 in SSE 3.6 mph 5.8 mph 85% 0 in
10:09 57.6 °F 53.1 °F 30.1 in SSO 3.6 mph 4.6 mph 84.8% 0 in
10:14 57.7 °F 53.1 °F 30.1 in SSO 3.6 mph 4.6 mph 84.1% 0 in
10:19 58.1 °F 53.2 °F 30.1 in SSO 3.3 mph 5.2 mph 84% 0 in
10:24 58.5 °F 53.4 °F 30.1 in Sur 2.9 mph 4.6 mph 83.7% 0 in
10:29 58.6 °F 53.4 °F 30.1 in SSO 2.9 mph 5.8 mph 82.8% 0 in
10:34 58.6 °F 53.2 °F 30.1 in OSO 2.9 mph 5.8 mph 82% 0 in
10:39 58.8 °F 53.2 °F 30.1 in SSE 3 mph 4.6 mph 82% 0 in
10:44 59.2 °F 53.6 °F 30.1 in SSE 3.1 mph 5.4 mph 82% 0 in
10:49 59.4 °F 54 °F 30.1 in SSE 3.3 mph 6.2 mph 82% 0 in
10:54 59.4 °F 53.6 °F 30.1 in SSE 3.6 mph 7.4 mph 81.1% 0 in
10:59 59.5 °F 53.8 °F 30.1 in SSE 4.3 mph 8.1 mph 81.2% 0 in
11:04 59.7 °F 54 °F 30.1 in SE 5.2 mph 8.1 mph 81% 0 in
11:09 59.7 °F 54 °F 30.1 in SSE 5.5 mph 8.1 mph 80.9% 0 in
11:14 60.1 °F 54 °F 30.1 in SSE 5.9 mph 6.9 mph 80.4% 0 in
11:19 60.4 °F 54.3 °F 30.1 in SSE 5.3 mph 5.8 mph 79.9% 0 in
11:24 61.2 °F 54.3 °F 30.1 in SSE 4.3 mph 6.9 mph 78.6% 0 in
11:29 61.7 °F 54.7 °F 30.1 in SSE 4 mph 5.8 mph 77.7% 0 in
11:34 62.2 °F 54.3 °F 30.1 in SSO 3.6 mph 5.9 mph 75.6% 0 in
11:39 62.2 °F 54.1 °F 30.1 in OSO 3.4 mph 4.6 mph 74.4% 0 in
11:44 62.8 °F 54.5 °F 30.1 in SO 3.1 mph 5.9 mph 74.3% 0 in
11:49 63.1 °F 54.3 °F 30.1 in Sur 2.9 mph 4.6 mph 72.7% 0 in
11:54 63.5 °F 54.3 °F 30.1 in SE 2.4 mph 4.7 mph 72% 0 in
11:59 64 °F 54.7 °F 30.1 in SE 2.4 mph 3.5 mph 71.7% 0 in
12:04 64.8 °F 54.9 °F 30.1 in Este 2.4 mph 4.7 mph 70.4% 0 in
12:09 64.9 °F 54.5 °F 30.1 in NO 2.2 mph 4.7 mph 69.1% 0 in
12:14 64.9 °F 54.5 °F 30.1 in NO 2 mph 3.6 mph 69% 0 in
12:19 65.5 °F 55 °F 30.1 in North 1.9 mph 4.7 mph 68.8% 0 in
12:24 66.2 °F 54.9 °F 30.1 in Sur 1.8 mph 4.6 mph 67% 0 in
12:29 66.6 °F 54.9 °F 30.1 in Oeste 2.1 mph 5.8 mph 66.3% 0 in
12:34 66.7 °F 54.9 °F 30.1 in ONO 2.4 mph 3.5 mph 66% 0 in
12:39 66.9 °F 55.2 °F 30.1 in SSE 2.2 mph 5.9 mph 66% 0 in
12:44 67.6 °F 55.2 °F 30.1 in SSO 1.8 mph 5.8 mph 64.7% 0 in
12:49 67.6 °F 55 °F 30.1 in Oeste 2.2 mph 5.2 mph 64% 0 in
12:54 67.5 °F 55 °F 30.1 in OSO 2.9 mph 4 mph 64.3% 0 in
12:59 67.8 °F 55.4 °F 30.1 in SSO 2.5 mph 4.7 mph 64.3% 0 in
13:04 68.4 °F 55.4 °F 30.1 in SSE 2 mph 3.5 mph 63.7% 0 in
13:09 68.7 °F 55.2 °F 30.1 in Este 1.9 mph 3.6 mph 62.4% 0 in
13:14 68.9 °F 55.2 °F 30 in NO 1.8 mph 4.6 mph 62% 0 in
13:19 69.1 °F 55.6 °F 30 in North 1.9 mph 4.7 mph 62.2% 0 in
13:24 69.1 °F 55.6 °F 30 in OSO 2 mph 5.4 mph 62% 0 in
13:29 69.1 °F 55.4 °F 30 in North 2.4 mph 5.8 mph 61.5% 0 in
13:34 69.1 °F 55.6 °F 30 in ONO 2.9 mph 5.8 mph 62% 0 in
13:39 68.9 °F 55.4 °F 30 in ONO 3 mph 5.8 mph 62% 0 in
13:44 68.9 °F 55.4 °F 30 in ONO 3.1 mph 7.4 mph 62% 0 in
13:49 69.1 °F 55.6 °F 30 in NO 3 mph 7.6 mph 62.3% 0 in
13:54 69.3 °F 55.9 °F 30 in NNE 2.9 mph 8.1 mph 62.5% 0 in
13:59 69.6 °F 55.8 °F 30 in Este 3 mph 4.6 mph 61.2% 0 in
14:04 70 °F 55.6 °F 30 in Oeste 3.1 mph 5.2 mph 60.1% 0 in
14:09 70.3 °F 55.4 °F 30 in Sur 2.8 mph 5.2 mph 59.3% 0 in
14:14 70.9 °F 55.6 °F 30 in SO 2.4 mph 3.6 mph 58.6% 0 in
14:19 71.1 °F 55.4 °F 30 in SO 2.4 mph 5.8 mph 57.8% 0 in
14:24 71.2 °F 55.8 °F 30 in North 2.4 mph 5.8 mph 58.2% 0 in
14:29 71.2 °F 55.6 °F 30 in NNE 2.6 mph 5.2 mph 57.9% 0 in
14:34 71.4 °F 56.1 °F 30 in NE 2.9 mph 5.9 mph 58.5% 0 in
14:39 71.6 °F 56.1 °F 30 in NO 2.9 mph 6.9 mph 58.1% 0 in
14:44 71.8 °F 56.3 °F 30 in NNO 2.9 mph 7.6 mph 58.4% 0 in
14:49 72 °F 56.5 °F 30 in NNO 3.2 mph 8.1 mph 58.4% 0 in
14:54 72 °F 56.3 °F 30 in NNO 3.6 mph 8.1 mph 58% 0 in
14:59 72 °F 56.3 °F 30 in NNE 4 mph 6.9 mph 57.9% 0 in
15:04 72 °F 55.9 °F 30 in NE 4.7 mph 8.5 mph 57% 0 in
15:09 72.1 °F 55.6 °F 30 in NNE 4.3 mph 5.8 mph 56% 0 in
15:14 72.3 °F 55.8 °F 30 in NNE 3.6 mph 9.2 mph 56.1% 0 in
15:19 72.3 °F 56.3 °F 30 in North 3.9 mph 9.2 mph 57% 0 in
15:24 72 °F 56.1 °F 30 in North 4.3 mph 9.2 mph 57.2% 0 in
15:29 72 °F 55.6 °F 30 in NE 4.7 mph 9.2 mph 56.3% 0 in
15:34 72 °F 55.6 °F 30 in North 5.2 mph 7.4 mph 56.3% 0 in
15:39 72.1 °F 56.1 °F 30 in NE 4.8 mph 8.1 mph 57% 0 in
15:44 72.3 °F 55.8 °F 30 in ENE 4 mph 8.1 mph 56% 0 in
15:49 72.1 °F 55.6 °F 30 in NNE 4.3 mph 9.2 mph 56% 0 in
15:54 72.3 °F 55.8 °F 30 in NNE 4.7 mph 11.5 mph 56% 0 in
15:59 72.5 °F 55 °F 30 in NE 4.7 mph 9.2 mph 54.6% 0 in
16:04 72.5 °F 54.9 °F 30 in NNE 4.7 mph 8.7 mph 54% 0 in
16:09 72.7 °F 55 °F 30 in NE 5.2 mph 11.5 mph 54% 0 in
16:14 72.9 °F 54.9 °F 30 in NE 5.9 mph 8.7 mph 53.2% 0 in
16:19 72.9 °F 54.7 °F 30 in NE 5.5 mph 9.2 mph 53% 0 in
16:24 73 °F 54.5 °F 30 in ENE 4.7 mph 9.2 mph 52.3% 0 in
16:29 72.9 °F 54.3 °F 30 in NE 5 mph 9.2 mph 52.1% 0 in
16:34 72.9 °F 54.5 °F 30 in ENE 5.4 mph 8.1 mph 52.7% 0 in
16:39 73 °F 54.3 °F 30 in Este 4.8 mph 8.1 mph 52.2% 0 in
16:44 73.2 °F 54.5 °F 30 in ENE 4 mph 11.8 mph 51.9% 0 in
16:49 73.2 °F 54.3 °F 30 in ESE 4.5 mph 11.5 mph 51.6% 0 in
16:54 73.2 °F 54.1 °F 30 in ESE 5.4 mph 8.5 mph 51.2% 0 in
16:59 73.2 °F 54.1 °F 30 in SE 5 mph 7.4 mph 51.4% 0 in
17:04 73.2 °F 54.5 °F 30 in ESE 4.3 mph 11.8 mph 52% 0 in
17:09 72.9 °F 55 °F 30 in ESE 4.9 mph 11.8 mph 53.4% 0 in
17:14 72.7 °F 55 °F 30 in ESE 5.9 mph 11.5 mph 54% 0 in
17:19 72.9 °F 55.2 °F 30 in ESE 6.5 mph 15 mph 54% 0 in
17:24 72.9 °F 55.2 °F 30 in ESE 7.4 mph 11.8 mph 54% 0 in
17:29 72.9 °F 55.8 °F 30 in ESE 7 mph 13 mph 55% 0 in
17:34 72.9 °F 55.6 °F 30 in ESE 6.4 mph 13.5 mph 54.8% 0 in
17:39 72.3 °F 55.6 °F 30 in SE 7.3 mph 13.8 mph 55.7% 0 in
17:44 72 °F 55.9 °F 30 in ESE 8.5 mph 12.7 mph 56.9% 0 in
17:49 71.8 °F 55.8 °F 30 in SE 8.1 mph 11.5 mph 57.3% 0 in
17:54 71.4 °F 56.1 °F 30 in ESE 7.4 mph 14 mph 58.6% 0 in
17:59 71.2 °F 56.3 °F 30 in ESE 7.4 mph 13.8 mph 59.3% 0 in
18:04 71.1 °F 56.5 °F 30 in ESE 7.4 mph 9.2 mph 60% 0 in
18:09 71.1 °F 56.8 °F 30 in ESE 6.9 mph 13 mph 60.9% 0 in
18:14 70.7 °F 56.7 °F 30 in ESE 6.2 mph 13.8 mph 61% 0 in
18:19 70.5 °F 56.7 °F 30 in SE 7 mph 14 mph 61.5% 0 in
18:24 70.3 °F 57 °F 30 in ESE 8.1 mph 15 mph 62.7% 0 in
18:29 70.2 °F 57.2 °F 30 in ESE 8.5 mph 15 mph 63.9% 0 in
18:34 70 °F 57.2 °F 30 in ESE 9.2 mph 16.1 mph 64% 0 in
18:39 69.8 °F 57.2 °F 30 in SE 8.6 mph 9.2 mph 64% 0 in
18:44 69.8 °F 57.2 °F 30 in SE 7.6 mph 10.4 mph 64% 0 in
18:49 69.8 °F 57 °F 30 in SE 6.9 mph 9.2 mph 64% 0 in
18:54 69.6 °F 56.7 °F 30 in SSE 5.9 mph 9.2 mph 63.3% 0 in
18:59 69.4 °F 56.3 °F 30 in SE 5.4 mph 14 mph 63% 0 in
19:04 69.3 °F 56.5 °F 30 in ESE 4.7 mph 13.8 mph 63.8% 0 in
19:09 69.1 °F 56.5 °F 30 in SE 5.6 mph 9.7 mph 64% 0 in
19:14 69.1 °F 56.3 °F 30 in SE 6.9 mph 11.4 mph 64% 0 in
19:19 68.7 °F 56.1 °F 30 in SSE 6.5 mph 11.5 mph 64% 0 in
19:24 68.7 °F 55.9 °F 30 in SE 5.9 mph 9.2 mph 64.1% 0 in
19:29 68.5 °F 56.3 °F 30 in SE 5.5 mph 10.4 mph 65% 0 in
19:34 68.4 °F 56.3 °F 30 in SE 4.7 mph 8.1 mph 65.3% 0 in
19:39 68.2 °F 56.5 °F 30 in SE 4.9 mph 12.3 mph 66% 0 in
19:44 68 °F 56.7 °F 30 in SE 5.2 mph 12.7 mph 67% 0 in
19:49 67.8 °F 56.5 °F 30 in SE 5.2 mph 8.1 mph 67% 0 in
19:54 67.6 °F 56.5 °F 30 in SE 5.2 mph 7.4 mph 67.4% 0 in
19:59 67.5 °F 56.3 °F 30 in Sur 4.7 mph 8.5 mph 67.3% 0 in
20:04 67.5 °F 56.3 °F 30 in Sur 4 mph 5.8 mph 67.6% 0 in
20:09 67.5 °F 56.5 °F 30 in SSO 3.9 mph 6.9 mph 68% 0 in
20:14 67.3 °F 56.7 °F 30 in Sur 3.6 mph 7.6 mph 68.7% 0 in
20:19 67.3 °F 57 °F 30 in SE 4 mph 8.5 mph 69.4% 0 in
20:24 67.3 °F 57.2 °F 30 in SE 4.7 mph 7.4 mph 70% 0 in
20:29 67.1 °F 57 °F 30 in SE 4.5 mph 8.1 mph 70.1% 0 in
20:34 66.9 °F 57.2 °F 30 in SSE 4.3 mph 9.2 mph 71% 0 in
20:39 66.9 °F 57.2 °F 30 in SSE 4.3 mph 6.9 mph 71% 0 in
20:44 66.7 °F 57 °F 30 in Sur 4.3 mph 6.9 mph 71% 0 in
20:49 66.7 °F 57.2 °F 30 in Sur 4.2 mph 6.9 mph 71.6% 0 in
20:54 66.6 °F 57.4 °F 30 in Sur 4 mph 5.8 mph 72% 0 in
20:59 66.6 °F 57.4 °F 30 in Sur 3.6 mph 4.6 mph 72% 0 in
21:04 66.6 °F 57.2 °F 30 in Sur 3.1 mph 4.6 mph 72% 0 in
21:09 66.4 °F 57 °F 30 in SSE 2.9 mph 3.6 mph 72% 0 in
21:14 66.4 °F 57.4 °F 30 in SSE 2.4 mph 4.3 mph 72.8% 0 in
21:19 66.4 °F 57.6 °F 30 in SE 2.2 mph 4.6 mph 73% 0 in
21:24 66.4 °F 57.6 °F 30 in SE 2 mph 3.6 mph 73% 0 in
21:29 66.4 °F 57.6 °F 30 in SE 2 mph 4.6 mph 73% 0 in
21:34 66.2 °F 57.4 °F 30 in SSE 2 mph 4.6 mph 73% 0 in
21:39 66.2 °F 57.4 °F 30 in SSE 2.2 mph 2.9 mph 73% 0 in
21:44 66 °F 57.2 °F 30 in SSE 2.4 mph 3.5 mph 73% 0 in
21:49 66 °F 57.2 °F 30 in SSE 2.2 mph 2.3 mph 73.4% 0 in
21:54 66 °F 57.6 °F 30 in Sur 1.8 mph 4.6 mph 74% 0 in
21:59 65.8 °F 57.2 °F 30 in ONO 1.8 mph 4.6 mph 74% 0 in
22:04 65.5 °F 57 °F 30 in ONO 1.8 mph 4 mph 74.2% 0 in
22:09 65.1 °F 57 °F 30 in NO 2.1 mph 4.6 mph 75% 0 in
22:14 64.8 °F 56.8 °F 30 in NO 2.4 mph 4.6 mph 75.6% 0 in
22:19 64.4 °F 56.8 °F 30 in NO 2.4 mph 3.6 mph 76.3% 0 in
22:24 64 °F 56.8 °F 30 in NO 2.4 mph 4.6 mph 77.2% 0 in
22:29 63.9 °F 56.8 °F 30 in ONO 2.4 mph 4.6 mph 78% 0 in
22:34 63.5 °F 56.8 °F 30 in ONO 2.4 mph 3.5 mph 78.8% 0 in
22:39 63.3 °F 56.8 °F 30 in ONO 2 mph 2.3 mph 79.3% 0 in
22:44 63.3 °F 57 °F 30 in ONO 1.4 mph 3.6 mph 80.2% 0 in
22:49 63.3 °F 57.4 °F 30 in NO 1.6 mph 2.9 mph 81% 0 in
22:54 63.3 °F 57.4 °F 30 in NO 1.8 mph 2.4 mph 81% 0 in
22:59 63.3 °F 57.4 °F 30 in NO 1 mph 2.3 mph 81% 0 in
23:04 63.1 °F 57.2 °F 30 in Calm   4.6 mph 81% 0 in
23:09 63 °F 57 °F 30 in ONO 0.8 mph 3.5 mph 81% 0 in
23:14 63 °F 57.4 °F 30 in ONO 2 mph 3.5 mph 81.8% 0 in
23:19 62.8 °F 57.2 °F 30 in ONO 1.8 mph 2.9 mph 82% 0 in
23:24 62.8 °F 57.2 °F 30 in ONO 1.4 mph 4.3 mph 82% 0 in
23:29 62.4 °F 57 °F 30 in Oeste 1.7 mph 5.8 mph 82.1% 0 in
Murcia-Puente Tocinos, Espa?a
Compliments of Weather Underground - 3 mb

La estación de MeteoMurcia.com, publica sus datos en los siguientes proyectos:

Weather Underground PWS IMURCIAP2 Meteoclimatic www.awekas.at

W3Counter
Web Analytics